Time;durP1;ratioP1;P1;durP2;ratioP2;P2;SDS_P1;SDS_P2;PMS_P1;PMS_P2;Temp;Humidity;BMP_temperature;BMP_pressure;BME280_temperature;BME280_humidity;BME280_pressure;Samples;Min_cycle;Max_cycle;Signal;HPM_P1;HPM_P2
2021/12/15 00:01:28;;;;;;;56.08;25.10;;;6.60;99.90;;;;;;5053772;28;20466;-68
2021/12/15 00:03:54;;;;;;;51.17;20.90;;;6.60;99.90;;;;;;5053169;28;20040;-68
2021/12/15 00:06:20;;;;;;;58.42;27.77;;;6.60;99.90;;;;;;5053005;28;20017;-68
2021/12/15 00:08:52;;;;;;;45.25;20.98;;;6.60;99.90;;;;;;5052938;28;20107;-68
2021/12/15 00:11:19;;;;;;;40.45;18.15;;;6.60;99.90;;;;;;5052784;28;20087;-68
2021/12/15 00:13:46;;;;;;;40.75;18.05;;;6.70;99.90;;;;;;5052268;28;20036;-68
2021/12/15 00:16:14;;;;;;;41.13;18.95;;;6.70;99.90;;;;;;5035099;28;20108;-68
2021/12/15 00:18:41;;;;;;;38.17;17.95;;;6.80;99.90;;;;;;5052799;28;20096;-68
2021/12/15 00:21:09;;;;;;;40.30;20.23;;;7.00;99.90;;;;;;5034973;28;20501;-68
2021/12/15 00:23:36;;;;;;;35.20;17.58;;;7.30;99.90;;;;;;5052581;28;20116;-68
2021/12/15 00:26:02;;;;;;;41.40;17.45;;;7.20;99.90;;;;;;5052827;28;20021;-68
2021/12/15 00:28:28;;;;;;;47.40;18.95;;;7.20;99.90;;;;;;5034813;28;20140;-68
2021/12/15 00:30:54;;;;;;;38.65;17.77;;;7.20;99.90;;;;;;5052903;28;20064;-68
2021/12/15 00:33:20;;;;;;;40.53;18.37;;;7.10;99.90;;;;;;5052607;28;20094;-67
2021/12/15 00:35:46;;;;;;;40.30;17.43;;;7.20;99.90;;;;;;5052774;28;20452;-68
2021/12/15 00:38:12;;;;;;;40.85;18.35;;;7.30;99.90;;;;;;5052532;28;20032;-67
2021/12/15 00:40:38;;;;;;;43.25;20.42;;;7.10;99.90;;;;;;5052549;28;20036;-69
2021/12/15 00:43:04;;;;;;;40.15;18.67;;;7.00;99.90;;;;;;5052513;28;20087;-67
2021/12/15 00:45:31;;;;;;;37.88;17.17;;;7.10;99.90;;;;;;5052703;28;20025;-67
2021/12/15 00:47:57;;;;;;;38.95;18.10;;;7.00;99.90;;;;;;5052942;28;20064;-67
2021/12/15 00:50:28;;;;;;;43.35;18.70;;;7.00;99.90;;;;;;5052754;28;20037;-69
2021/12/15 00:52:54;;;;;;;35.88;17.63;;;6.90;99.90;;;;;;5052627;28;20108;-67
2021/12/15 00:55:21;;;;;;;42.33;18.60;;;7.00;99.90;;;;;;5052504;28;20060;-67
2021/12/15 00:57:47;;;;;;;42.15;19.45;;;6.90;99.90;;;;;;5034393;28;20029;-67
2021/12/15 01:00:23;;;;;;;41.17;18.40;;;6.80;99.90;;;;;;5052405;28;20021;-67
2021/12/15 01:02:50;;;;;;;39.05;18.42;;;6.70;99.90;;;;;;5053001;28;20021;-66
2021/12/15 01:05:18;;;;;;;39.72;18.50;;;6.70;99.90;;;;;;5052328;28;20138;-66
2021/12/15 01:07:44;;;;;;;36.58;18.58;;;6.70;99.90;;;;;;5053150;28;20393;-66
2021/12/15 01:10:13;;;;;;;39.05;18.88;;;6.80;99.90;;;;;;5052305;28;20386;-66
2021/12/15 01:20:57;;;;;;;44.42;18.63;;;6.60;99.90;;;;;;5052598;28;20036;-67
2021/12/15 01:23:26;;;;;;;43.05;20.42;;;6.60;99.90;;;;;;5052199;28;20061;-67
2021/12/15 01:26:06;;;;;;;43.28;18.63;;;6.60;99.90;;;;;;5054193;28;20032;-67
2021/12/15 01:28:32;;;;;;;39.85;19.77;;;6.60;99.90;;;;;;5057379;28;20036;-67
2021/12/15 01:30:58;;;;;;;;;;;6.60;99.90;;;;;;5057065;28;20413;-66
2021/12/15 01:33:27;;;;;;;42.97;18.52;;;6.70;99.90;;;;;;5055854;28;19909;-67
2021/12/15 01:35:55;;;;;;;41.95;20.13;;;6.70;99.90;;;;;;5055810;28;20025;-67
2021/12/15 01:38:25;;;;;;;38.83;18.52;;;6.70;99.90;;;;;;5055606;28;20023;-67
2021/12/15 01:40:51;;;;;;;45.30;19.33;;;6.70;99.90;;;;;;5037910;28;20017;-67
2021/12/15 01:43:31;;;;;;;40.58;19.45;;;6.80;99.90;;;;;;5056031;28;20021;-66
2021/12/15 01:48:56;;;;;;;39.90;19.10;;;6.80;99.90;;;;;;5055657;28;20401;-66
2021/12/15 01:51:22;;;;;;;37.25;17.77;;;6.80;99.90;;;;;;5037581;28;20672;-67
2021/12/15 01:53:47;;;;;;;35.03;18.43;;;6.80;99.90;;;;;;5037651;28;20115;-66
2021/12/15 01:56:13;;;;;;;43.10;19.87;;;6.80;99.90;;;;;;5055699;28;20035;-66
2021/12/15 01:58:39;;;;;;;43.47;20.00;;;6.70;99.90;;;;;;5054977;28;20467;-66
2021/12/15 02:01:08;;;;;;;46.87;18.97;;;6.70;99.90;;;;;;5054966;28;20262;-66
2021/12/15 02:03:35;;;;;;;38.97;18.85;;;6.70;99.90;;;;;;5036839;28;20029;-66
2021/12/15 02:06:02;;;;;;;39.15;18.55;;;6.70;99.90;;;;;;5054688;28;20415;-66
2021/12/15 02:08:28;;;;;;;36.97;18.45;;;6.70;99.90;;;;;;5054932;28;20033;-66
2021/12/15 02:10:54;;;;;;;40.22;19.35;;;6.70;99.90;;;;;;5054776;28;20028;-66
2021/12/15 02:13:20;;;;;;;36.03;18.67;;;6.70;99.90;;;;;;5054677;28;20036;-66
2021/12/15 02:15:55;;;;;;;38.03;18.77;;;6.70;99.90;;;;;;5054662;28;20033;-66
2021/12/15 02:18:26;;;;;;;38.13;17.85;;;6.70;99.90;;;;;;5054669;28;20033;-66
2021/12/15 02:20:59;;;;;;;37.72;18.80;;;6.80;99.90;;;;;;5036894;28;20035;-66
2021/12/15 02:23:36;;;;;;;43.80;19.58;;;6.90;99.90;;;;;;5054365;28;20080;-66
2021/12/15 02:26:07;;;;;;;41.72;19.13;;;7.00;99.90;;;;;;5037026;28;20459;-67
2021/12/15 02:28:33;;;;;;;39.63;18.08;;;7.00;99.90;;;;;;5055275;28;20539;-67
2021/12/15 02:31:12;;;;;;;40.87;18.20;;;6.90;99.90;;;;;;5055154;28;20021;-67
2021/12/15 02:39:01;;;;;;;36.78;18.52;;;6.90;99.90;;;;;;5054966;28;20473;-67
2021/12/15 02:41:29;;;;;;;41.13;19.40;;;6.90;99.90;;;;;;5036809;28;20021;-66
2021/12/15 02:44:02;;;;;;;41.83;19.83;;;6.90;99.90;;;;;;5054693;28;20040;-67
2021/12/15 02:46:30;;;;;;;42.85;18.42;;;6.90;99.90;;;;;;5054546;28;20557;-67
2021/12/15 02:48:56;;;;;;;39.08;18.42;;;6.90;99.90;;;;;;5036477;28;20055;-67
2021/12/15 02:51:22;;;;;;;34.90;17.88;;;6.80;99.90;;;;;;5054385;28;20021;-67
2021/12/15 02:53:49;;;;;;;47.28;19.95;;;6.80;99.90;;;;;;5054285;28;20516;-67
2021/12/15 02:56:15;;;;;;;;;;;6.70;99.90;;;;;;5054734;28;20106;-67
2021/12/15 02:59:04;;;;;;;42.63;19.70;;;6.70;99.90;;;;;;5054244;28;20353;-67
2021/12/15 03:01:51;;;;;;;42.08;18.50;;;6.70;99.90;;;;;;5054390;28;20028;-67
2021/12/15 03:07:10;;;;;;;45.35;19.27;;;6.70;99.90;;;;;;5055372;28;20052;-67
2021/12/15 03:18:06;;;;;;;43.15;19.92;;;6.80;99.90;;;;;;5054271;28;20492;-67
2021/12/15 03:20:45;;;;;;;44.55;18.63;;;6.70;99.90;;;;;;5054476;28;20095;-68
2021/12/15 03:23:13;;;;;;;42.35;18.30;;;6.70;99.90;;;;;;5053860;28;20033;-68
2021/12/15 03:25:40;;;;;;;41.78;18.00;;;6.70;99.90;;;;;;5054933;28;20080;-67
2021/12/15 03:33:58;;;;;;;43.30;19.45;;;7.00;99.90;;;;;;5030710;28;20040;-66
2021/12/15 03:36:40;;;;;;;45.00;19.48;;;6.90;99.90;;;;;;5053951;28;20028;-67
2021/12/15 03:39:10;;;;;;;47.85;19.25;;;6.80;99.90;;;;;;5053414;28;20021;-67
2021/12/15 03:41:36;;;;;;;44.83;20.77;;;6.90;99.90;;;;;;5053289;28;20504;-67
2021/12/15 03:44:03;;;;;;;45.58;20.67;;;7.00;99.90;;;;;;5053826;28;20111;-67
2021/12/15 03:46:29;;;;;;;48.50;19.98;;;6.90;99.90;;;;;;5035808;28;20021;-67
2021/12/15 03:48:55;;;;;;;47.83;19.80;;;6.80;99.90;;;;;;5053021;28;20581;-67
2021/12/15 03:51:21;;;;;;;47.22;20.63;;;6.80;99.90;;;;;;5053642;28;20052;-68
2021/12/15 03:53:46;;;;;;;45.90;19.87;;;6.70;99.90;;;;;;5053516;28;20468;-66
2021/12/15 03:56:14;;;;;;;50.47;21.20;;;6.80;99.90;;;;;;5035881;28;20102;-67
2021/12/15 03:58:42;;;;;;;46.58;21.20;;;6.70;99.90;;;;;;5054223;28;20025;-67
2021/12/15 04:01:13;;;;;;;50.15;20.38;;;6.70;99.90;;;;;;5053196;28;20028;-67
2021/12/15 04:03:42;;;;;;;52.60;21.48;;;6.70;99.90;;;;;;5053290;28;20044;-67
2021/12/15 04:06:13;;;;;;;43.25;19.98;;;6.70;99.90;;;;;;5053336;28;20021;-67
2021/12/15 04:08:40;;;;;;;43.40;20.17;;;6.70;99.90;;;;;;5053216;28;20037;-67
2021/12/15 04:11:08;;;;;;;45.20;19.02;;;6.70;99.90;;;;;;5053181;28;20096;-67
2021/12/15 04:13:35;;;;;;;41.05;19.33;;;6.70;99.90;;;;;;5052727;28;20025;-67
2021/12/15 04:16:06;;;;;;;55.55;20.95;;;6.70;99.90;;;;;;5052985;28;20021;-67
2021/12/15 04:18:33;;;;;;;45.00;19.88;;;6.60;99.90;;;;;;5052758;28;20061;-68
2021/12/15 04:20:59;;;;;;;48.40;20.90;;;6.70;99.90;;;;;;5034895;28;20032;-67
2021/12/15 04:23:25;;;;;;;49.97;20.13;;;6.70;99.90;;;;;;5052834;28;20032;-67
2021/12/15 04:25:58;;;;;;;53.47;20.20;;;6.70;99.90;;;;;;5053054;28;20030;-67
2021/12/15 04:28:33;;;;;;;42.40;18.58;;;6.70;99.90;;;;;;5054000;28;20104;-66
2021/12/15 04:31:03;;;;;;;53.53;19.45;;;6.70;99.90;;;;;;5053811;28;20138;-66
2021/12/15 04:33:41;;;;;;;44.47;19.60;;;6.70;99.90;;;;;;5053311;28;20465;-68
2021/12/15 04:36:09;;;;;;;49.13;20.80;;;6.70;99.90;;;;;;5054110;28;20543;-66
2021/12/15 04:38:36;;;;;;;46.40;19.15;;;6.70;99.90;;;;;;5052676;28;20104;-66
2021/12/15 04:41:07;;;;;;;47.47;19.83;;;6.70;99.90;;;;;;5052881;28;20467;-66
2021/12/15 04:43:35;;;;;;;51.00;19.30;;;6.70;99.90;;;;;;5052740;28;20029;-66
2021/12/15 04:46:03;;;;;;;49.55;19.33;;;6.80;99.90;;;;;;5052660;28;20151;-66
2021/12/15 04:48:28;;;;;;;58.38;21.48;;;6.90;99.90;;;;;;5052570;28;20545;-66
2021/12/15 04:50:54;;;;;;;52.47;19.33;;;6.80;99.90;;;;;;5053075;28;20111;-66
2021/12/15 04:53:22;;;;;;;54.08;20.60;;;6.70;99.90;;;;;;5035146;28;20475;-66
2021/12/15 04:55:48;;;;;;;44.30;20.40;;;6.60;99.90;;;;;;5052849;28;20442;-66
2021/12/15 04:58:14;;;;;;;;;;;6.60;99.90;;;;;;5053095;28;20104;-66
2021/12/15 05:00:49;;;;;;;58.00;23.33;;;6.60;99.90;;;;;;5055111;28;19927;-66
2021/12/15 05:03:15;;;;;;;48.17;20.95;;;6.60;99.90;;;;;;5056564;28;20025;-66
2021/12/15 05:05:41;;;;;;;51.13;19.73;;;6.50;99.90;;;;;;5056645;28;20471;-66
2021/12/15 05:08:07;;;;;;;56.10;20.63;;;6.50;99.90;;;;;;5038188;28;20039;-66
2021/12/15 05:10:33;;;;;;;56.88;20.88;;;6.50;99.90;;;;;;5056797;28;20070;-66
2021/12/15 05:12:59;;;;;;;49.78;19.92;;;6.50;99.90;;;;;;5056450;28;20430;-66
2021/12/15 05:15:27;;;;;;;53.08;21.00;;;6.40;99.90;;;;;;5056114;28;20029;-68
2021/12/15 05:17:53;;;;;;;44.47;18.90;;;6.50;99.90;;;;;;5056051;28;20048;-67
2021/12/15 05:20:19;;;;;;;51.08;20.38;;;6.60;99.90;;;;;;5038105;28;20158;-68
2021/12/15 05:22:45;;;;;;;53.95;21.23;;;6.60;99.90;;;;;;5038361;28;20082;-67
2021/12/15 05:25:11;;;;;;;48.95;20.90;;;6.60;99.90;;;;;;5056646;28;20028;-68
2021/12/15 05:27:39;;;;;;;48.72;18.88;;;6.50;99.90;;;;;;5038088;28;20029;-68
2021/12/15 05:30:07;;;;;;;49.78;19.00;;;6.50;99.90;;;;;;5055919;28;20056;-68
2021/12/15 05:32:33;;;;;;;47.70;19.58;;;6.50;99.90;;;;;;5055629;28;20036;-68
2021/12/15 05:34:59;;;;;;;53.80;21.35;;;6.40;99.90;;;;;;5055880;28;20021;-68
2021/12/15 05:37:27;;;;;;;49.42;19.65;;;6.50;99.90;;;;;;5055749;28;20033;-68
2021/12/15 05:39:54;;;;;;;52.47;21.40;;;6.50;99.90;;;;;;5039545;28;20029;-68
2021/12/15 05:42:20;;;;;;;49.95;19.40;;;6.40;99.90;;;;;;5055849;28;20087;-68
2021/12/15 05:44:48;;;;;;;58.92;22.88;;;6.40;99.90;;;;;;5055831;28;20025;-68
2021/12/15 05:47:14;;;;;;;57.53;20.63;;;6.40;99.90;;;;;;5055888;28;20036;-71
2021/12/15 05:49:40;;;;;;;53.40;21.13;;;6.40;99.90;;;;;;5055761;28;20082;-67
2021/12/15 05:52:06;;;;;;;62.72;25.90;;;6.40;99.90;;;;;;5055714;28;20033;-67
2021/12/15 05:54:32;;;;;;;;;;;6.40;99.90;;;;;;5037998;28;20396;-68
2021/12/15 05:56:58;;;;;;;50.38;18.52;;;6.40;99.90;;;;;;5055589;28;20007;-68
2021/12/15 05:59:25;;;;;;;63.73;22.10;;;6.40;99.90;;;;;;5037519;28;20178;-68
2021/12/15 06:01:51;;;;;;;56.33;22.15;;;6.50;99.90;;;;;;5055311;28;20049;-68
2021/12/15 06:04:16;;;;;;;61.33;21.83;;;6.70;99.90;;;;;;5055209;28;20124;-67
2021/12/15 06:06:42;;;;;;;60.33;21.27;;;6.60;99.90;;;;;;5037612;28;20394;-68
2021/12/15 06:09:10;;;;;;;60.90;23.30;;;6.50;99.90;;;;;;5055676;28;20025;-71
2021/12/15 06:11:37;;;;;;;58.75;24.55;;;6.60;99.90;;;;;;5054382;28;20025;-67
2021/12/15 06:14:04;;;;;;;60.40;22.08;;;6.50;99.90;;;;;;5054999;28;20020;-68
2021/12/15 06:16:29;;;;;;;46.88;19.10;;;6.50;99.90;;;;;;5055122;28;20485;-69
2021/12/15 06:18:55;;;;;;;50.10;20.20;;;6.60;99.90;;;;;;5037716;28;20060;-69
2021/12/15 06:21:22;;;;;;;47.67;18.92;;;6.60;99.90;;;;;;5055022;28;20025;-68
2021/12/15 06:23:48;;;;;;;;;;;6.60;99.90;;;;;;5055425;28;20500;-67
2021/12/15 06:26:15;;;;;;;44.80;18.45;;;6.60;99.90;;;;;;5055215;28;19905;-68
2021/12/15 06:28:41;;;;;;;49.20;19.40;;;6.60;99.90;;;;;;5054940;28;20389;-68
2021/12/15 06:31:10;;;;;;;44.72;18.25;;;6.70;99.90;;;;;;5054961;28;20024;-70
2021/12/15 06:33:38;;;;;;;45.88;18.95;;;6.70;99.90;;;;;;5054966;28;20021;-67
2021/12/15 06:36:07;;;;;;;42.90;18.55;;;6.70;99.90;;;;;;5056061;28;20029;-68
2021/12/15 06:38:37;;;;;;;43.60;18.48;;;6.70;99.90;;;;;;5055421;28;20024;-68
2021/12/15 06:41:05;;;;;;;45.22;18.38;;;6.70;99.90;;;;;;5054853;28;20018;-68
2021/12/15 06:43:32;;;;;;;41.60;17.98;;;6.70;99.90;;;;;;5036872;28;20021;-68
2021/12/15 06:46:15;;;;;;;;;;;6.70;99.90;;;;;;5059164;28;20033;-68
2021/12/15 06:59:39;;;;;;;53.25;18.55;;;6.70;99.90;;;;;;5055453;28;20023;-68
2021/12/15 07:02:05;;;;;;;51.90;18.73;;;6.70;99.90;;;;;;5055185;28;20021;-69
2021/12/15 07:04:31;;;;;;;51.25;18.17;;;6.70;99.90;;;;;;5036207;28;20284;-67
2021/12/15 07:06:56;;;;;;;49.45;20.25;;;6.70;99.90;;;;;;5053839;28;20399;-66
2021/12/15 07:09:23;;;;;;;47.07;18.03;;;6.70;99.90;;;;;;5036006;28;20394;-70
2021/12/15 07:11:52;;;;;;;51.38;17.75;;;6.70;99.90;;;;;;5036190;28;20025;-69
2021/12/15 07:14:18;;;;;;;53.60;20.42;;;6.70;99.90;;;;;;5054058;28;20036;-69
2021/12/15 07:16:46;;;;;;;54.33;20.17;;;6.60;99.90;;;;;;5035930;28;20551;-69
2021/12/15 07:19:21;;;;;;;49.90;19.25;;;6.70;99.90;;;;;;5037193;28;20469;-69
2021/12/15 07:22:06;;;;;;;55.53;20.58;;;6.90;99.90;;;;;;5053425;28;20036;-69
2021/12/15 07:24:33;;;;;;;55.17;19.83;;;6.90;99.90;;;;;;5052721;28;20130;-69
2021/12/15 07:26:59;;;;;;;56.05;20.42;;;6.90;99.90;;;;;;5053942;28;20021;-70
2021/12/15 07:29:25;;;;;;;;;;;6.90;99.90;;;;;;5036441;28;20121;-69
2021/12/15 07:31:51;;;;;;;54.20;19.42;;;7.00;99.90;;;;;;5035947;28;19911;-71
2021/12/15 07:34:17;;;;;;;58.90;20.20;;;7.00;99.90;;;;;;5038258;28;20017;-70
2021/12/15 07:36:43;;;;;;;52.40;19.63;;;7.00;99.90;;;;;;5036187;28;20048;-70
2021/12/15 07:39:11;;;;;;;53.47;19.33;;;6.90;99.90;;;;;;5053729;28;20057;-69
2021/12/15 07:41:48;;;;;;;53.92;19.90;;;6.90;99.90;;;;;;5053805;28;20413;-69
2021/12/15 07:44:14;;;;;;;60.17;23.63;;;6.90;99.90;;;;;;5035950;28;20478;-69
2021/12/15 07:46:40;;;;;;;;;;;6.90;99.90;;;;;;5054530;28;20032;-68
2021/12/15 07:49:06;;;;;;;50.78;19.92;;;7.00;99.90;;;;;;5054122;28;20022;-70
2021/12/15 07:51:31;;;;;;;56.03;20.87;;;6.90;99.90;;;;;;5054082;28;20108;-68
2021/12/15 07:53:57;;;;;;;45.73;19.50;;;7.00;99.90;;;;;;5055603;28;20470;-70
2021/12/15 07:56:23;;;;;;;47.37;20.00;;;7.00;99.90;;;;;;5056178;28;20486;-69
2021/12/15 07:58:48;;;;;;;54.63;20.63;;;7.00;99.90;;;;;;5037168;28;20448;-69
2021/12/15 08:01:16;;;;;;;50.20;20.03;;;7.00;99.90;;;;;;5037070;28;20271;-71
2021/12/15 08:03:43;;;;;;;48.53;21.83;;;7.00;99.90;;;;;;5036985;28;20492;-70
2021/12/15 08:06:08;;;;;;;;;;;7.00;99.90;;;;;;5036772;28;20025;-69
2021/12/15 08:08:35;;;;;;;54.92;20.95;;;7.00;99.90;;;;;;5053416;28;20293;-68
2021/12/15 08:11:00;;;;;;;47.40;20.23;;;7.00;99.90;;;;;;5053584;28;20021;-69
2021/12/15 08:13:30;;;;;;;50.75;21.95;;;7.00;99.90;;;;;;5036042;28;20522;-69
2021/12/15 08:15:56;;;;;;;49.28;19.38;;;7.10;99.90;;;;;;5053249;28;20025;-68
2021/12/15 08:18:22;;;;;;;51.55;19.92;;;7.00;99.90;;;;;;5035187;28;20502;-69
2021/12/15 08:20:50;;;;;;;46.90;19.98;;;7.10;99.90;;;;;;5035592;28;20124;-69
2021/12/15 08:23:16;;;;;;;48.92;21.50;;;7.10;99.90;;;;;;5052699;28;20517;-69
2021/12/15 08:25:42;;;;;;;55.35;21.70;;;7.20;99.90;;;;;;5052918;28;20025;-70
2021/12/15 08:28:09;;;;;;;48.25;20.55;;;7.20;99.90;;;;;;5052997;28;20512;-69
2021/12/15 08:30:35;;;;;;;59.90;21.85;;;7.20;99.90;;;;;;5052918;28;20029;-69
2021/12/15 08:33:05;;;;;;;53.92;23.85;;;7.20;99.90;;;;;;5035168;28;20600;-69
2021/12/15 08:35:40;;;;;;;53.10;22.67;;;7.30;99.90;;;;;;5055382;28;20051;-69
2021/12/15 08:38:08;;;;;;;49.75;20.45;;;7.20;99.90;;;;;;5057280;28;20025;-69
2021/12/15 08:40:35;;;;;;;53.50;21.02;;;7.30;99.90;;;;;;5057129;28;20040;-69
2021/12/15 08:43:01;;;;;;;42.05;19.50;;;7.40;99.90;;;;;;5038930;28;20017;-69
2021/12/15 08:45:28;;;;;;;46.55;20.02;;;7.40;99.90;;;;;;5056784;28;20525;-69
2021/12/15 08:47:55;;;;;;;40.60;18.90;;;7.40;99.90;;;;;;5038980;28;20025;-69
2021/12/15 08:50:32;;;;;;;40.97;18.20;;;7.30;99.90;;;;;;5039296;28;20453;-69
2021/12/15 08:52:59;;;;;;;37.45;18.45;;;7.30;99.90;;;;;;5057175;28;20231;-69
2021/12/15 08:55:25;;;;;;;39.80;18.58;;;7.40;99.90;;;;;;5056948;28;20394;-70
2021/12/15 08:57:54;;;;;;;37.72;18.80;;;7.40;99.90;;;;;;5039010;28;20090;-69
2021/12/15 09:00:22;;;;;;;42.40;18.90;;;7.30;99.90;;;;;;5058024;28;20099;-69
2021/12/15 09:02:48;;;;;;;38.58;18.67;;;7.30;99.90;;;;;;5038809;28;20021;-69
2021/12/15 09:05:21;;;;;;;34.90;16.75;;;7.30;99.90;;;;;;5056773;28;20020;-69
2021/12/15 09:07:49;;;;;;;42.88;19.75;;;7.40;99.90;;;;;;5056930;28;20033;-69
2021/12/15 09:10:16;;;;;;;39.55;18.80;;;7.40;99.90;;;;;;5056444;28;20079;-69
2021/12/15 09:12:42;;;;;;;38.70;19.08;;;7.50;99.90;;;;;;5056302;28;20025;-69
2021/12/15 09:15:08;;;;;;;39.55;19.52;;;7.40;99.90;;;;;;5056317;28;20028;-69
2021/12/15 09:17:35;;;;;;;41.65;18.48;;;7.40;99.90;;;;;;5056376;28;20040;-69
2021/12/15 09:20:01;;;;;;;36.67;18.27;;;7.40;99.90;;;;;;5056499;28;20532;-70
2021/12/15 09:22:27;;;;;;;39.60;18.88;;;7.40;99.90;;;;;;5057184;28;20109;-70
2021/12/15 09:24:52;;;;;;;40.07;18.27;;;7.50;99.90;;;;;;5061326;28;20017;-70
2021/12/15 09:27:18;;;;;;;43.33;21.30;;;7.40;99.90;;;;;;5066044;28;20021;-69
2021/12/15 09:29:44;;;;;;;38.17;18.08;;;7.40;99.90;;;;;;5060567;28;20032;-69
2021/12/15 09:32:10;;;;;;;38.58;18.50;;;7.40;99.90;;;;;;5059497;28;20044;-70
2021/12/15 09:34:36;;;;;;;36.60;18.63;;;7.30;99.90;;;;;;5056405;28;20112;-68
2021/12/15 09:37:04;;;;;;;39.45;18.58;;;7.30;99.90;;;;;;5037944;28;20482;-70
2021/12/15 09:39:30;;;;;;;45.85;19.80;;;7.30;99.90;;;;;;5037893;28;20025;-69
2021/12/15 09:41:56;;;;;;;37.83;19.20;;;7.20;99.90;;;;;;5038018;28;20036;-69
2021/12/15 09:44:25;;;;;;;37.22;17.13;;;7.20;99.90;;;;;;5037739;28;20810;-69
2021/12/15 10:03:05;;;;;;;42.20;17.45;;;7.40;99.90;;;;;;5056074;28;20032;-70
2021/12/15 10:05:49;;;;;;;41.42;19.08;;;7.50;99.90;;;;;;5055846;28;20028;-68
2021/12/15 10:19:36;;;;;;;35.88;16.17;;;7.90;99.90;;;;;;5055861;28;20036;-68
2021/12/15 10:22:08;;;;;;;34.88;16.20;;;8.10;99.90;;;;;;5037262;28;20029;-68
2021/12/15 10:25:03;;;;;;;27.60;13.23;;;8.10;99.90;;;;;;5055302;28;20025;-67
2021/12/15 10:27:31;;;;;;;25.92;13.18;;;8.20;99.90;;;;;;5055115;28;20359;-68
2021/12/15 10:30:28;;;;;;;28.45;13.07;;;8.40;99.90;;;;;;5037360;28;20029;-68
2021/12/15 10:33:28;;;;;;;24.98;11.15;;;8.50;99.90;;;;;;5055023;28;20474;-68
2021/12/15 10:35:58;;;;;;;21.30;10.02;;;8.70;99.90;;;;;;5041198;28;20041;-68
2021/12/15 10:38:32;;;;;;;19.83;9.98;;;8.70;99.90;;;;;;5038424;28;20021;-68
2021/12/15 10:41:22;;;;;;;18.17;9.23;;;8.80;99.90;;;;;;5057194;28;20092;-70
2021/12/15 10:43:55;;;;;;;23.08;11.35;;;8.90;99.90;;;;;;5037147;28;20115;-69
2021/12/15 10:46:28;;;;;;;20.17;10.38;;;8.90;99.90;;;;;;5054853;28;20104;-67
2021/12/15 10:49:16;;;;;;;22.50;11.30;;;9.00;99.90;;;;;;5054761;28;20025;-68
2021/12/15 10:51:53;;;;;;;19.58;9.05;;;8.90;99.90;;;;;;5036888;28;20024;-68
2021/12/15 10:54:39;;;;;;;;;;;8.90;99.90;;;;;;5055170;28;20083;-69
2021/12/15 10:57:12;;;;;;;18.52;10.55;;;8.90;99.90;;;;;;5036453;28;19944;-68
2021/12/15 10:59:44;;;;;;;26.27;12.02;;;8.80;99.90;;;;;;5054864;28;20378;-69
2021/12/15 11:02:20;;;;;;;20.95;10.65;;;8.70;99.90;;;;;;5036487;28;20024;-68
2021/12/15 11:05:10;;;;;;;16.85;9.43;;;8.70;99.90;;;;;;5036513;28;20027;-69
2021/12/15 11:07:47;;;;;;;20.48;9.80;;;8.70;99.90;;;;;;5022915;28;20481;-69
2021/12/15 11:10:34;;;;;;;15.77;9.43;;;8.60;99.90;;;;;;5054301;28;20029;-68
2021/12/15 11:13:10;;;;;;;17.17;9.75;;;8.50;99.90;;;;;;5035986;28;20026;-69
2021/12/15 11:15:52;;;;;;;17.20;9.60;;;8.60;99.90;;;;;;5054045;28;20035;-68
2021/12/15 11:18:20;;;;;;;23.52;10.65;;;8.70;99.90;;;;;;5053981;28;20033;-67
2021/12/15 11:20:48;;;;;;;20.70;10.20;;;8.70;99.90;;;;;;5053932;28;20040;-67
2021/12/15 11:23:21;;;;;;;20.67;10.50;;;8.60;99.90;;;;;;5036002;28;20113;-67
2021/12/15 11:26:02;;;;;;;21.23;10.13;;;8.50;99.90;;;;;;5053902;28;20029;-67
2021/12/15 11:28:38;;;;;;;10.02;5.80;;;8.50;99.90;;;;;;5054035;28;20035;-67
2021/12/15 11:31:11;;;;;;;9.70;4.30;;;8.50;99.90;;;;;;5036197;28;20090;-68
2021/12/15 11:33:45;;;;;;;6.97;4.50;;;8.60;99.90;;;;;;5053776;28;20263;-68
2021/12/15 11:36:13;;;;;;;11.98;6.07;;;8.70;99.90;;;;;;5054223;28;20413;-69
2021/12/15 11:38:46;;;;;;;8.75;5.38;;;8.70;99.90;;;;;;5036070;28;20119;-67
2021/12/15 11:41:14;;;;;;;7.80;4.13;;;8.70;99.90;;;;;;5035737;28;20021;-68
2021/12/15 11:43:47;;;;;;;6.22;3.75;;;8.70;99.90;;;;;;5035765;28;20504;-68
2021/12/15 11:46:34;;;;;;;7.93;4.95;;;8.70;99.90;;;;;;5035887;28;20086;-68
2021/12/15 11:49:06;;;;;;;9.40;5.93;;;8.60;99.90;;;;;;5054246;28;20036;-68
2021/12/15 11:51:35;;;;;;;8.93;5.65;;;8.60;99.90;;;;;;5035813;28;20482;-68
2021/12/15 11:54:02;;;;;;;7.32;5.20;;;8.70;99.90;;;;;;5053478;28;20467;-68
2021/12/15 11:56:35;;;;;;;7.80;5.03;;;8.80;99.90;;;;;;5053918;28;20021;-68
2021/12/15 11:59:33;;;;;;;8.48;5.80;;;8.80;99.90;;;;;;5054583;28;20025;-68
2021/12/15 12:02:10;;;;;;;9.05;5.95;;;8.90;99.90;;;;;;5044945;28;20033;-68
2021/12/15 12:04:59;;;;;;;12.38;7.10;;;8.80;99.90;;;;;;5053863;28;20486;-68
2021/12/15 12:07:34;;;;;;;14.48;7.43;;;8.80;99.90;;;;;;5040621;28;20410;-67
2021/12/15 12:10:03;;;;;;;14.10;7.80;;;8.90;99.90;;;;;;5053596;28;20104;-69
2021/12/15 12:12:35;;;;;;;14.02;7.90;;;8.90;99.90;;;;;;5053977;28;20025;-68
2021/12/15 12:15:02;;;;;;;12.60;7.80;;;8.90;99.90;;;;;;5053655;28;20538;-69
2021/12/15 12:17:33;;;;;;;15.55;8.45;;;8.80;99.90;;;;;;5035587;28;20025;-69
2021/12/15 12:20:06;;;;;;;12.55;7.72;;;8.90;99.90;;;;;;5053510;28;20074;-67
2021/12/15 12:22:34;;;;;;;11.18;6.80;;;8.80;99.90;;;;;;5035253;28;20041;-68
2021/12/15 12:25:07;;;;;;;15.13;7.18;;;8.70;99.90;;;;;;5053457;28;20017;-68
2021/12/15 12:27:35;;;;;;;13.15;7.18;;;8.70;99.90;;;;;;5053425;28;20056;-67
2021/12/15 12:30:04;;;;;;;;;;;8.80;99.90;;;;;;5053643;28;20104;-68
2021/12/15 12:32:30;;;;;;;11.18;6.05;;;8.90;99.90;;;;;;5053838;28;19909;-68
2021/12/15 12:34:57;;;;;;;8.07;5.23;;;8.90;99.90;;;;;;5054621;28;20036;-67
2021/12/15 12:37:22;;;;;;;7.45;4.95;;;8.70;99.90;;;;;;5036333;28;20466;-67
2021/12/15 12:39:54;;;;;;;8.38;5.03;;;8.50;99.90;;;;;;5053563;28;20050;-68
2021/12/15 12:42:36;;;;;;;8.40;4.93;;;8.40;99.90;;;;;;5053121;28;20017;-68
2021/12/15 12:45:32;;;;;;;7.78;5.38;;;8.40;99.90;;;;;;5055742;28;20100;-67
2021/12/15 12:48:32;;;;;;;9.52;4.82;;;8.30;99.90;;;;;;5056471;28;20387;-68
2021/12/15 12:59:47;;;;;;;9.25;4.43;;;8.30;99.90;;;;;;5052720;28;20036;-68
2021/12/15 13:02:31;;;;;;;6.93;4.55;;;8.30;99.90;;;;;;5075498;22;20021;-65
2021/12/15 13:04:57;;;;;;;7.82;4.22;;;8.30;99.90;;;;;;5036197;28;20037;-65
2021/12/15 13:07:53;;;;;;;7.53;4.30;;;8.30;99.90;;;;;;5036313;28;20071;-65
2021/12/15 13:10:21;;;;;;;7.68;4.32;;;8.20;99.90;;;;;;5037043;28;20025;-65
2021/12/15 13:12:48;;;;;;;7.55;4.47;;;8.10;99.90;;;;;;5054251;28;20090;-65
2021/12/15 13:15:20;;;;;;;9.10;4.78;;;8.10;99.90;;;;;;5035955;28;20110;-65
2021/12/15 13:17:59;;;;;;;6.10;3.95;;;8.20;99.90;;;;;;5035132;28;20032;-65
2021/12/15 13:20:31;;;;;;;8.68;4.97;;;8.20;99.90;;;;;;5035913;28;20499;-65
2021/12/15 13:23:29;;;;;;;6.97;4.88;;;8.20;99.90;;;;;;5057005;28;20056;-65
2021/12/15 13:31:19;;;;;;;8.05;5.30;;;8.20;99.90;;;;;;5059545;28;20036;-64
2021/12/15 13:33:52;;;;;;;7.90;4.88;;;8.20;99.90;;;;;;5057217;28;20100;-63
2021/12/15 13:36:40;;;;;;;10.75;5.97;;;8.30;99.90;;;;;;5057100;28;20021;-66
2021/12/15 13:39:07;;;;;;;;;;;8.30;99.90;;;;;;5057402;28;20021;-67
2021/12/15 13:44:42;;;;;;;7.50;4.18;;;8.40;99.90;;;;;;5056519;28;20021;-67
2021/12/15 13:47:07;;;;;;;6.63;4.30;;;8.40;99.90;;;;;;5057237;28;20027;-67
2021/12/15 13:49:56;;;;;;;8.53;5.27;;;8.40;99.90;;;;;;5038780;28;20104;-65
2021/12/15 13:52:40;;;;;;;6.97;4.07;;;8.50;99.90;;;;;;5057253;28;20048;-63
2021/12/15 13:55:26;;;;;;;6.53;4.50;;;8.50;99.90;;;;;;5039466;28;20025;-64
2021/12/15 13:57:57;;;;;;;6.75;4.20;;;8.60;99.90;;;;;;5056641;28;20029;-65
2021/12/15 14:00:43;;;;;;;7.63;4.55;;;8.60;99.90;;;;;;5057133;28;20017;-61
2021/12/15 14:03:26;;;;;;;5.75;3.88;;;8.50;99.90;;;;;;5056357;28;20033;-64
2021/12/15 14:06:12;;;;;;;9.93;4.60;;;8.40;99.90;;;;;;5038167;28;20075;-60
2021/12/15 14:08:43;;;;;;;7.57;4.93;;;8.40;99.90;;;;;;5056266;28;20043;-64
2021/12/15 14:11:17;;;;;;;8.23;4.65;;;8.30;99.90;;;;;;5039296;28;20441;-67
2021/12/15 14:13:47;;;;;;;7.63;5.30;;;8.40;99.90;;;;;;5057203;28;20029;-65
2021/12/15 14:16:13;;;;;;;9.65;4.53;;;8.40;99.90;;;;;;5055904;28;20040;-67
2021/12/15 14:18:39;;;;;;;7.30;4.80;;;8.50;99.90;;;;;;5055544;28;20377;-66
2021/12/15 14:21:13;;;;;;;6.10;3.88;;;8.40;99.90;;;;;;5037458;28;20457;-66
2021/12/15 14:23:46;;;;;;;6.40;4.25;;;8.30;99.90;;;;;;5055578;28;20017;-67
2021/12/15 14:26:17;;;;;;;6.95;4.43;;;8.20;99.90;;;;;;5055390;28;20074;-66
2021/12/15 14:28:50;;;;;;;6.25;4.78;;;8.30;99.90;;;;;;5055032;28;20027;-66
2021/12/15 14:31:25;;;;;;;7.63;5.13;;;8.30;99.90;;;;;;5055229;28;20025;-67